Главная страница
METAR-TAF:

METAR-TAF

Аэропорты :

Екатеринбург, Россия

Кольцово

широта: 56-50N, долгота: 060-38E, высота над уровнем моря: 237 м

Текущие метеонаблюдения

Эта сводка был подготовлена 25 минут назад, в 10:00 UTC
Ветер 12 Узел от юго-восточный
Температура 3°C
Влажность 38%
Давление 1023 hPa
Видимость 10 км и более
Нет облачности ниже 1500 м, и нет кучево-дождевой облачности

METAR: USSS 231000Z 14006MPS CAVOK 03/M10 Q1023 R08L/190050 NOSIG RMK QFE747/0997

Время: 15:25 (10:25 UTC)

Прогноз

Эта сводка был подготовлена 2 часа и 25 минут назад, в 08:00 UTC
Прогноз действительный с 23-го 09 UTC до 24-го 09 UTC
Ветер 10 Узел от юго-восточный
Видимость 10 км и более
Отдельные облака на высоте 2000 фута
изменения
С 23-го 18 UTC до 23-го 20 UTC
Рассеянная облачность на высоте 1000 фута

TAF: USSS 230800Z 2309/2409 14005MPS 9999 SCT020 BECMG 2318/2320 BKN010

Метеонаблюдения и прогнозы для более 4000 аэропортов (сводки METAR и TAF).

Имеющиеся станции представлены на карте желтыми и красными точками.

Чтобы увидеть название станции, наведите на нее мышь.

Затем щелкните, чтобы увидеть метеонаблюдения и метеопрогнозы.

Управление картой: чтобы увеличить масштаб, щелкните зеленые кнопки с черным крестиком; чтобы уменьшить масштаб, щелкните зеленую кнопку с тире; для просмотра соседних карт щелкайте зеленые стрелки.


METAR-TAF: